Jump to content

  •  

AMERICAN AIRLINES FLIGHT AA6170 FLOWN ON 09-26-2017 BY CAPTAIN JIM BOERMAN

Pilot StatsCaptain Jim Boerman (LDP136) • 4,686.4 total hours • 1,423 total flights [View Logbook]
FLIGHT DETAILS
StatusReceived and approved on 2017-09-26 at 19:09:26
Origin AirportLos Angeles Intl (KLAX) • Los Angeles, California, United States (126 feet MSL)
Filed Flight PlanFLIGHT PLANNER OFFLINE
Destination AirportBarajas (LEMD) • Madrid, Spain (1,999 feet MSL)
Alternate AirportVillanubla (LEVD) • Valladolid, Spain (2,774 feet MSL)
AirlineAmerican Airlines
AircraftBoeing 777-200LR (77L / B777-200LR)
FS Aircraft UsedPMDG 777-223LR American Airlines (Fictional)
Cruising AltitudeFL350
Distance Flown5,067 nautical miles
Passengers Onboard261 passengers (86.71% full)
DEPARTURE DETAILS
Time Out05:51:44
Taxi Data566,846 lbs total with 160,022 lbs of fuel onboard
Takeoff Data06:02:33 (11 minutes after leaving gate/ramp) • 565,256 lbs total • 9° pitch at 172 knots
Departure METARKLAX 261153Z 10004KT 10SM FEW200 SCT250 18/05 A2978 RMK AO2 SLP080 T01830050 10206 20167 56003 $
ARRIVAL DETAILS
Landing Data23:55:32 • 423,787 lbs total • 3° pitch doing 131 knots at a rate of -225.30 feet/minute with 15,822 lbs of fuel onboard
Time In00:09:09 (-1,426 minutes after landing)
Ramp Weight422,646 lbs total
Total Fuel Used144,200 lbs
Total Block Time09:43:41 (9.7 hours) while -1 minutes were spent on the ground
Arrival METARLEMD 262300Z VRB01KT CAVOK 16/06 Q1020 NOSIG
MISCELLANEOUS DETAILS
LiveDISPATCH Version4.8.3.1
FS Version
FSUIPC Version5.12
OS VersionWindows 7 32-bit
Screen Resolution1920 x 1080
Pilot's CommentsNo Comments Reported
FLIGHT MAP